createdAt,value
2023-04-26T00:02:52.209Z,59.18
2023-04-26T00:05:58.247Z,60.40
2023-04-26T00:09:08.248Z,61.23
2023-04-26T00:12:14.952Z,61.32
2023-04-26T00:15:21.833Z,64.82
2023-04-26T00:18:27.818Z,64.56
2023-04-26T00:21:34.881Z,61.13
2023-04-26T00:24:43.650Z,59.13
2023-04-26T00:27:50.770Z,57.51
2023-04-26T00:30:58.275Z,55.27
2023-04-26T00:34:05.101Z,56.44
2023-04-26T00:37:11.012Z,57.21
2023-04-26T00:40:21.051Z,59.41
2023-04-26T00:43:27.046Z,59.38
2023-04-26T00:46:34.107Z,56.74
2023-04-26T00:49:40.426Z,55.89
2023-04-26T00:52:50.304Z,55.39
2023-04-26T00:55:59.306Z,56.32
2023-04-26T00:59:07.037Z,56.85
2023-04-26T01:02:13.308Z,56.93
2023-04-26T01:05:21.062Z,59.51
2023-04-26T01:08:27.863Z,61.05
2023-04-26T01:11:41.630Z,64.69
2023-04-26T01:14:49.100Z,55.59
2023-04-26T01:17:55.845Z,53.78
2023-04-26T01:21:05.066Z,55.44
2023-04-26T01:24:15.844Z,54.78
2023-04-26T01:27:22.657Z,53.88
2023-04-26T01:30:29.073Z,56.33
2023-04-26T01:33:35.913Z,60.31
2023-04-26T01:36:42.875Z,58.84
2023-04-26T01:39:53.959Z,56.05
2023-04-26T01:43:00.055Z,57.60
2023-04-26T01:46:08.735Z,56.67
2023-04-26T01:49:15.039Z,58.12
2023-04-26T01:52:21.970Z,62.37
2023-04-26T01:55:30.592Z,63.76
2023-04-26T01:58:37.520Z,61.40
2023-04-26T02:01:46.030Z,61.74
2023-04-26T02:04:52.805Z,58.87
2023-04-26T02:07:58.852Z,61.97
2023-04-26T02:11:08.257Z,68.14
2023-04-26T02:14:16.072Z,72.90
2023-04-26T02:17:23.999Z,77.07
2023-04-26T02:20:29.880Z,72.26
2023-04-26T02:23:36.690Z,71.59
2023-04-26T02:26:45.289Z,73.59
2023-04-26T02:29:52.112Z,75.51
2023-04-26T02:32:58.548Z,80.30
2023-04-26T02:36:08.416Z,78.83
2023-04-26T02:39:17.309Z,77.64
2023-04-26T02:42:26.900Z,76.16
2023-04-26T02:45:33.133Z,73.35
2023-04-26T02:48:40.010Z,78.63
2023-04-26T02:51:46.444Z,75.80
2023-04-26T02:54:59.554Z,78.18
2023-04-26T02:58:18.727Z,74.24
2023-04-26T03:01:31.671Z,72.76
2023-04-26T03:04:38.853Z,75.00
2023-04-26T03:07:45.667Z,75.19
2023-04-26T03:10:51.652Z,71.56
2023-04-26T03:14:01.627Z,73.76
2023-04-26T03:17:16.586Z,73.14
2023-04-26T03:20:28.486Z,69.66
2023-04-26T03:23:34.470Z,69.19
2023-04-26T03:26:44.341Z,70.40
2023-04-26T03:29:53.210Z,72.91
2023-04-26T03:33:00.374Z,76.19
2023-04-26T03:36:06.755Z,79.58
2023-04-26T03:39:13.789Z,85.66
2023-04-26T03:42:19.776Z,89.46
2023-04-26T03:45:29.747Z,90.81
2023-04-26T03:48:35.718Z,85.56
2023-04-26T03:51:42.521Z,84.60
2023-04-26T03:54:48.621Z,85.08
2023-04-26T03:57:57.122Z,88.36
2023-04-26T04:01:05.679Z,91.83
2023-04-26T04:04:15.459Z,88.50
2023-04-26T04:07:23.400Z,89.03
2023-04-26T04:10:35.348Z,89.33
2023-04-26T04:13:41.223Z,86.48
2023-04-26T04:16:51.223Z,87.43
2023-04-26T04:19:57.253Z,86.65
2023-04-26T04:23:06.549Z,84.26
2023-04-26T04:26:12.844Z,86.55
2023-04-26T04:29:20.463Z,90.46
2023-04-26T04:32:29.613Z,85.40
2023-04-26T04:35:37.018Z,85.71
2023-04-26T04:38:44.699Z,82.95
2023-04-26T04:41:52.811Z,80.16
2023-04-26T04:45:00.005Z,81.42
2023-04-26T04:48:22.217Z,74.93
2023-04-26T04:51:28.358Z,71.76
2023-04-26T04:54:36.005Z,72.30
2023-04-26T04:57:43.093Z,74.31
2023-04-26T05:00:51.801Z,68.11
2023-04-26T05:04:11.915Z,68.19
2023-04-26T05:07:19.192Z,62.83
2023-04-26T05:10:25.296Z,64.02
2023-04-26T05:13:32.933Z,64.61
2023-04-26T05:16:39.087Z,62.58
2023-04-26T05:19:48.672Z,62.51
2023-04-26T05:22:55.104Z,60.08
2023-04-26T05:26:07.930Z,61.20
2023-04-26T05:29:32.327Z,58.55
2023-04-26T05:32:46.103Z,61.36
2023-04-26T05:36:15.366Z,62.92
2023-04-26T05:39:22.232Z,64.27
2023-04-26T05:42:40.501Z,61.86
2023-04-26T05:45:56.490Z,60.16
2023-04-26T05:49:04.166Z,65.59
2023-04-26T05:52:14.263Z,63.52
2023-04-26T05:55:21.723Z,58.75
2023-04-26T05:58:29.625Z,60.93
2023-04-26T06:01:35.710Z,60.20
2023-04-26T06:04:43.626Z,53.75
2023-04-26T06:07:55.419Z,53.21
2023-04-26T06:11:02.252Z,46.29
2023-04-26T06:14:30.360Z,42.63
2023-04-26T06:17:45.069Z,31.01
2023-04-26T06:20:51.157Z,30.28
2023-04-26T06:24:00.659Z,29.50
2023-04-26T06:27:11.925Z,30.47
2023-04-26T06:30:22.809Z,37.32
2023-04-26T06:33:29.715Z,41.04
2023-04-26T06:36:36.736Z,34.84
2023-04-26T06:39:45.954Z,32.06
2023-04-26T06:42:53.226Z,33.28
2023-04-26T06:46:15.613Z,36.00
2023-04-26T06:49:22.920Z,38.22
2023-04-26T06:52:30.165Z,40.62
2023-04-26T06:55:40.027Z,41.24
2023-04-26T06:59:03.576Z,39.44
2023-04-26T07:02:10.730Z,39.72
2023-04-26T07:05:17.674Z,37.49
2023-04-26T07:08:24.700Z,38.85
2023-04-26T07:11:34.539Z,39.74
2023-04-26T07:14:43.610Z,43.52
2023-04-26T07:17:49.632Z,40.39
2023-04-26T07:20:59.430Z,38.87
2023-04-26T07:24:10.369Z,37.84
2023-04-26T07:27:19.777Z,41.84
2023-04-26T07:30:26.595Z,41.95
2023-04-26T07:33:33.705Z,40.90
2023-04-26T07:36:39.914Z,39.92
2023-04-26T07:39:46.776Z,37.09
2023-04-26T07:42:56.887Z,33.91
2023-04-26T07:46:08.545Z,44.26
2023-04-26T07:49:16.445Z,56.19
2023-04-26T07:52:23.685Z,54.13
2023-04-26T07:55:30.508Z,35.70
2023-04-26T07:58:41.023Z,33.80
2023-04-26T08:01:47.017Z,52.20
2023-04-26T08:04:56.115Z,46.10
2023-04-26T08:08:02.281Z,38.69
2023-04-26T08:11:13.938Z,32.32
2023-04-26T08:14:24.466Z,32.09
2023-04-26T08:17:31.589Z,32.37
2023-04-26T08:20:37.646Z,28.33
2023-04-26T08:23:44.811Z,32.02
2023-04-26T08:26:50.708Z,28.25
2023-04-26T08:30:00.137Z,23.18
2023-04-26T08:33:13.627Z,27.34
2023-04-26T08:36:20.958Z,30.07
2023-04-26T08:39:26.940Z,30.04
2023-04-26T08:42:37.939Z,53.70
2023-04-26T08:45:56.392Z,26.73
2023-04-26T08:49:21.037Z,25.58
2023-04-26T08:52:30.478Z,38.48
2023-04-26T08:55:46.717Z,39.67
2023-04-26T08:58:56.241Z,33.56
2023-04-26T09:02:08.050Z,20.89
2023-04-26T09:05:15.250Z,27.00
2023-04-26T09:08:24.819Z,26.63
2023-04-26T09:11:31.062Z,51.23
2023-04-26T09:14:38.662Z,37.74
2023-04-26T09:17:47.392Z,31.61
2023-04-26T09:21:18.113Z,33.14
2023-04-26T09:24:24.117Z,34.44
2023-04-26T09:27:43.514Z,31.04
2023-04-26T09:30:49.682Z,34.76
2023-04-26T09:34:05.244Z,34.56
2023-04-26T09:37:15.396Z,31.10
2023-04-26T09:40:23.715Z,21.66
2023-04-26T09:43:29.651Z,27.06
2023-04-26T09:46:44.381Z,26.93
2023-04-26T09:49:54.641Z,27.56
2023-04-26T09:53:03.108Z,28.32
2023-04-26T09:56:14.973Z,37.96
2023-04-26T09:59:21.778Z,36.06
2023-04-26T10:02:31.596Z,31.36
2023-04-26T10:05:41.744Z,38.17
2023-04-26T10:08:48.789Z,28.68
2023-04-26T10:11:56.428Z,23.08
2023-04-26T10:15:02.697Z,22.49
2023-04-26T10:18:10.076Z,21.76
2023-04-26T10:21:36.530Z,18.21
2023-04-26T10:24:43.968Z,23.75
2023-04-26T10:27:57.883Z,21.97
2023-04-26T10:31:05.836Z,19.58
2023-04-26T10:34:25.478Z,22.28
2023-04-26T10:37:34.963Z,24.84
2023-04-26T10:40:46.207Z,21.67
2023-04-26T10:44:00.115Z,21.15
2023-04-26T10:47:33.629Z,17.46
2023-04-26T10:51:12.778Z,21.16
2023-04-26T10:54:21.484Z,13.46
2023-04-26T10:57:54.209Z,22.13
2023-04-26T11:01:12.044Z,23.48
2023-04-26T11:04:32.836Z,16.57
2023-04-26T11:07:44.074Z,18.39
2023-04-26T11:11:02.831Z,19.29
2023-04-26T11:14:10.338Z,21.81
2023-04-26T11:17:17.645Z,16.65
2023-04-26T11:20:30.776Z,17.28
2023-04-26T11:23:38.759Z,18.87
2023-04-26T11:26:54.998Z,21.77
2023-04-26T11:30:05.521Z,21.65
2023-04-26T11:33:23.333Z,17.84
2023-04-26T11:36:30.265Z,14.28
2023-04-26T11:39:40.600Z,16.10
2023-04-26T11:42:50.172Z,17.22
2023-04-26T11:46:09.384Z,16.18
2023-04-26T11:49:30.668Z,27.53
2023-04-26T11:52:37.282Z,21.05
2023-04-26T11:55:44.360Z,19.34
2023-04-26T11:58:56.774Z,21.96
2023-04-26T12:02:10.551Z,25.55
2023-04-26T12:05:31.867Z,28.75
2023-04-26T12:08:40.885Z,26.63
2023-04-26T12:11:53.099Z,17.42
2023-04-26T12:15:02.482Z,20.48
2023-04-26T12:18:12.977Z,22.67
2023-04-26T12:21:23.233Z,23.83
2023-04-26T12:24:37.012Z,26.06
2023-04-26T12:27:44.339Z,21.24
2023-04-26T12:30:56.551Z,18.78
2023-04-26T12:34:03.442Z,20.72
2023-04-26T12:37:09.537Z,18.63
2023-04-26T12:40:17.035Z,24.86
2023-04-26T12:43:24.427Z,23.27
2023-04-26T12:46:41.613Z,20.31
2023-04-26T12:49:47.842Z,21.28
2023-04-26T12:52:54.705Z,20.66
2023-04-26T12:56:00.703Z,27.33
2023-04-26T12:59:08.167Z,29.86
2023-04-26T13:02:16.813Z,34.49
2023-04-26T13:05:24.949Z,24.59
2023-04-26T13:08:31.920Z,24.39
2023-04-26T13:11:38.752Z,22.36
2023-04-26T13:14:44.694Z,21.85
2023-04-26T13:17:54.219Z,23.41
2023-04-26T13:21:05.387Z,25.29
2023-04-26T13:24:12.254Z,25.86
2023-04-26T13:27:18.475Z,22.75
2023-04-26T13:30:35.337Z,16.55
2023-04-26T13:33:43.908Z,24.39
2023-04-26T13:37:00.978Z,25.96
2023-04-26T13:40:08.618Z,21.30
2023-04-26T13:43:15.754Z,21.06
2023-04-26T13:46:21.732Z,21.59
2023-04-26T13:49:31.399Z,22.36
2023-04-26T13:52:51.425Z,24.64
2023-04-26T13:55:58.381Z,26.97
2023-04-26T13:59:06.552Z,20.03
2023-04-26T14:02:14.323Z,21.04
2023-04-26T14:05:31.685Z,21.14
2023-04-26T14:08:38.545Z,20.60
2023-04-26T14:11:57.101Z,45.02
2023-04-26T14:15:29.669Z,59.10
2023-04-26T14:18:36.036Z,122.50
2023-04-26T14:21:45.731Z,23.28
2023-04-26T14:24:51.928Z,32.13
2023-04-26T14:27:58.791Z,76.72
2023-04-26T14:31:04.814Z,33.70
2023-04-26T14:34:16.649Z,57.38
2023-04-26T14:37:32.579Z,28.53
2023-04-26T14:40:40.683Z,27.87
2023-04-26T14:43:46.755Z,35.47
2023-04-26T14:46:54.069Z,23.74
2023-04-26T14:50:01.043Z,24.47
2023-04-26T14:53:10.758Z,31.37
2023-04-26T14:56:24.113Z,18.76
2023-04-26T14:59:31.020Z,19.66
2023-04-26T15:02:37.260Z,23.47
2023-04-26T15:05:44.125Z,32.62
2023-04-26T15:08:52.930Z,30.07
2023-04-26T15:12:00.033Z,23.97
2023-04-26T15:15:14.630Z,27.68
2023-04-26T15:18:21.677Z,29.62
2023-04-26T15:21:29.194Z,27.96
2023-04-26T15:24:44.377Z,22.35
2023-04-26T15:27:50.800Z,18.75
2023-04-26T15:31:05.917Z,18.04
2023-04-26T15:34:12.250Z,25.63
2023-04-26T15:37:26.189Z,23.73
2023-04-26T15:40:38.335Z,24.06
2023-04-26T15:43:46.792Z,24.37
2023-04-26T15:46:52.877Z,36.64
2023-04-26T15:50:05.096Z,40.52
2023-04-26T15:53:11.360Z,38.48
2023-04-26T15:56:22.695Z,30.13
2023-04-26T15:59:30.367Z,30.41
2023-04-26T16:02:37.512Z,36.69
2023-04-26T16:05:46.590Z,38.29
2023-04-26T16:08:53.461Z,63.09
2023-04-26T16:12:05.062Z,48.31
2023-04-26T16:15:14.737Z,33.94
2023-04-26T16:18:21.190Z,28.29
2023-04-26T16:21:34.096Z,28.48
2023-04-26T16:24:40.427Z,28.63
2023-04-26T16:27:49.816Z,42.11
2023-04-26T16:30:56.332Z,36.49
2023-04-26T16:34:05.330Z,32.95
2023-04-26T16:37:11.329Z,26.29
2023-04-26T16:40:18.482Z,37.32
2023-04-26T16:43:27.810Z,26.73
2023-04-26T16:46:34.728Z,33.58
2023-04-26T16:49:40.864Z,23.94
2023-04-26T16:52:47.706Z,45.28
2023-04-26T16:55:56.837Z,45.65
2023-04-26T16:59:06.794Z,43.71
2023-04-26T17:02:12.785Z,42.99
2023-04-26T17:05:20.053Z,42.82
2023-04-26T17:08:27.649Z,45.72
2023-04-26T17:11:35.764Z,46.36
2023-04-26T17:14:44.368Z,43.31
2023-04-26T17:17:58.142Z,43.54
2023-04-26T17:21:04.185Z,39.19
2023-04-26T17:24:11.776Z,61.59
2023-04-26T17:27:18.347Z,62.07
2023-04-26T17:30:28.200Z,56.68
2023-04-26T17:33:36.549Z,55.73
2023-04-26T17:36:43.537Z,42.65
2023-04-26T17:39:49.530Z,44.36
2023-04-26T17:42:56.551Z,69.76
2023-04-26T17:46:08.413Z,58.50
2023-04-26T17:49:15.309Z,57.88
2023-04-26T17:52:21.250Z,67.58
2023-04-26T17:55:28.039Z,94.52
2023-04-26T17:58:34.062Z,72.28
2023-04-26T18:01:46.558Z,64.63
2023-04-26T18:04:53.349Z,124.22
2023-04-26T18:08:00.988Z,98.59
2023-04-26T18:11:07.219Z,110.51
2023-04-26T18:14:14.147Z,88.76
2023-04-26T18:17:22.881Z,92.13
2023-04-26T18:20:32.308Z,110.82
2023-04-26T18:23:38.281Z,132.58
2023-04-26T18:26:45.125Z,99.89
2023-04-26T18:29:51.130Z,81.49
2023-04-26T18:33:00.565Z,70.24
2023-04-26T18:36:06.975Z,67.06
2023-04-26T18:39:19.939Z,48.36
2023-04-26T18:42:29.765Z,65.91
2023-04-26T18:45:36.732Z,92.96
2023-04-26T18:48:49.225Z,119.47
2023-04-26T18:51:57.549Z,123.42
2023-04-26T18:55:03.846Z,157.80
2023-04-26T18:58:10.706Z,112.00
2023-04-26T19:01:18.841Z,108.34
2023-04-26T19:04:28.997Z,71.52
2023-04-26T19:07:41.937Z,71.56
2023-04-26T19:10:48.808Z,95.43
2023-04-26T19:14:00.921Z,114.47
2023-04-26T19:17:19.224Z,180.01
2023-04-26T19:20:29.835Z,287.97
2023-04-26T19:23:36.974Z,214.99
2023-04-26T19:26:45.851Z,167.42
2023-04-26T19:29:59.839Z,142.65
2023-04-26T19:33:06.277Z,88.80
2023-04-26T19:36:17.522Z,94.15
2023-04-26T19:39:26.448Z,102.64
2023-04-26T19:42:33.434Z,114.62
2023-04-26T19:45:41.201Z,124.47
2023-04-26T19:48:48.048Z,129.82
2023-04-26T19:51:56.817Z,154.94
2023-04-26T19:55:03.807Z,144.47
2023-04-26T19:58:10.962Z,147.90
2023-04-26T20:01:17.799Z,143.74
2023-04-26T20:04:24.163Z,142.85
2023-04-26T20:07:45.350Z,148.91
2023-04-26T20:10:51.408Z,148.41
2023-04-26T20:13:58.310Z,152.86
2023-04-26T20:17:05.131Z,162.65
2023-04-26T20:20:22.497Z,166.82
2023-04-26T20:23:33.498Z,167.50
2023-04-26T20:26:40.271Z,174.67
2023-04-26T20:29:46.112Z,171.41
2023-04-26T20:32:52.969Z,174.49
2023-04-26T20:35:59.649Z,177.33
2023-04-26T20:39:10.089Z,197.32
2023-04-26T20:42:16.341Z,212.04
2023-04-26T20:45:30.236Z,213.52
2023-04-26T20:48:39.493Z,192.32
2023-04-26T20:51:46.493Z,180.93
2023-04-26T20:54:56.540Z,158.87
2023-04-26T20:58:03.256Z,154.34
2023-04-26T21:01:09.928Z,151.65
2023-04-26T21:04:17.006Z,151.44
2023-04-26T21:07:23.120Z,144.10
2023-04-26T21:10:32.637Z,148.58
2023-04-26T21:13:38.654Z,144.43
2023-04-26T21:16:45.459Z,142.61
2023-04-26T21:19:51.418Z,133.63
2023-04-26T21:22:58.291Z,131.69
2023-04-26T21:26:07.194Z,126.62
2023-04-26T21:29:13.931Z,124.85
2023-04-26T21:32:19.929Z,118.10
2023-04-26T21:35:29.681Z,119.85
2023-04-26T21:38:35.750Z,124.19
2023-04-26T21:41:46.513Z,112.22
2023-04-26T21:44:53.643Z,109.27
2023-04-26T21:48:00.433Z,106.54
2023-04-26T21:51:06.808Z,103.93
2023-04-26T21:54:13.911Z,102.12
2023-04-26T21:57:30.354Z,109.44
2023-04-26T22:00:42.568Z,95.43
2023-04-26T22:03:48.904Z,92.55
2023-04-26T22:06:55.782Z,93.11
2023-04-26T22:10:01.987Z,92.62
2023-04-26T22:13:15.400Z,95.76
2023-04-26T22:16:21.623Z,95.54
2023-04-26T22:19:29.791Z,92.51
2023-04-26T22:22:35.802Z,88.79
2023-04-26T22:25:42.903Z,83.61
2023-04-26T22:28:55.567Z,78.02
2023-04-26T22:32:06.369Z,82.05
2023-04-26T22:35:12.722Z,79.26
2023-04-26T22:38:19.523Z,77.64
2023-04-26T22:41:25.475Z,78.63
2023-04-26T22:44:34.874Z,78.51
2023-04-26T22:47:41.091Z,77.03
2023-04-26T22:50:47.910Z,73.81
2023-04-26T22:53:56.498Z,71.06
2023-04-26T22:57:03.648Z,66.94
2023-04-26T23:00:20.280Z,69.53
2023-04-26T23:03:27.169Z,66.19
2023-04-26T23:06:33.427Z,69.81
2023-04-26T23:09:42.959Z,68.41
2023-04-26T23:12:49.534Z,73.24
2023-04-26T23:15:59.000Z,78.77
2023-04-26T23:19:12.204Z,82.84
2023-04-26T23:22:19.123Z,90.71
2023-04-26T23:25:25.230Z,96.21
2023-04-26T23:28:32.188Z,99.95
2023-04-26T23:31:46.615Z,96.81
2023-04-26T23:34:53.361Z,97.39
2023-04-26T23:37:59.220Z,98.07
2023-04-26T23:41:20.120Z,97.07
2023-04-26T23:44:25.990Z,98.95
2023-04-26T23:47:35.383Z,97.92
2023-04-26T23:50:41.256Z,99.02
2023-04-26T23:53:48.123Z,101.34
2023-04-26T23:56:54.008Z,103.35
